Time;durP1;ratioP1;P1;durP2;ratioP2;P2;SDS_P1;SDS_P2;PMS_P1;PMS_P2;Temp;Humidity;BMP_temperature;BMP_pressure;BME280_temperature;BME280_humidity;BME280_pressure;Samples;Min_cycle;Max_cycle;Signal;HPM_P1;HPM_P2
2022/09/05 00:01:41;;;;;;;18.35;3.75;;;;;;;;;;4754123;30;20032;-74
2022/09/05 00:04:22;;;;;;;16.63;3.65;;;;;;;;;;4768052;30;20044;-74
2022/09/05 00:07:12;;;;;;;19.35;3.92;;;;;;;;;;4754593;30;20046;-74
2022/09/05 00:10:00;;;;;;;17.75;3.63;;;;;;;;;;4754484;30;20036;-74
2022/09/05 00:12:27;;;;;;;15.02;3.00;;;;;;;;;;4754489;30;20028;-74
2022/09/05 00:14:57;;;;;;;18.17;3.45;;;;;;;;;;4754218;30;20036;-74
2022/09/05 00:17:26;;;;;;;17.35;3.53;;;;;;;;;;4754413;30;20048;-74
2022/09/05 00:19:58;;;;;;;15.45;3.38;;;;;;;;;;4754156;30;20460;-74
2022/09/05 00:22:41;;;;;;;11.82;4.03;;;;;;;;;;4754192;30;20036;-74
2022/09/05 00:25:13;;;;;;;18.25;3.75;;;;;;;;;;4753151;30;20040;-74
2022/09/05 00:27:40;;;;;;;14.80;3.70;;;;;;;;;;4754099;30;20040;-74
2022/09/05 00:30:10;;;;;;;11.68;3.53;;;;;;;;;;4753883;30;20444;-74
2022/09/05 00:32:48;;;;;;;15.63;3.90;;;;;;;;;;4754239;30;20034;-74
2022/09/05 00:35:33;;;;;;;12.43;3.85;;;;;;;;;;4753957;30;20034;-74
2022/09/05 00:38:09;;;;;;;13.80;3.80;;;;;;;;;;4753992;30;20434;-74
2022/09/05 00:40:37;;;;;;;17.58;3.67;;;;;;;;;;4753791;30;20028;-73
2022/09/05 00:43:24;;;;;;;17.95;3.35;;;;;;;;;;4753690;30;20044;-74
2022/09/05 00:45:53;;;;;;;14.50;3.22;;;;;;;;;;4753686;30;20044;-74
2022/09/05 00:48:22;;;;;;;21.13;4.22;;;;;;;;;;4753755;30;20031;-74
2022/09/05 00:51:07;;;;;;;13.57;3.00;;;;;;;;;;4753753;30;20051;-74
2022/09/05 00:53:34;;;;;;;19.27;3.88;;;;;;;;;;4753580;30;20405;-74
2022/09/05 00:56:19;;;;;;;20.52;3.92;;;;;;;;;;4753881;30;20032;-74
2022/09/05 00:58:52;;;;;;;19.02;4.10;;;;;;;;;;4753222;30;20024;-74
2022/09/05 01:01:39;;;;;;;12.82;3.50;;;;;;;;;;4752962;30;20028;-74
2022/09/05 01:04:24;;;;;;;15.23;3.30;;;;;;;;;;4753551;30;20028;-74
2022/09/05 01:07:00;;;;;;;16.52;3.58;;;;;;;;;;4753371;30;20056;-74
2022/09/05 01:09:50;;;;;;;13.25;3.60;;;;;;;;;;4753784;30;20028;-74
2022/09/05 01:12:21;;;;;;;20.90;3.65;;;;;;;;;;4753021;30;20025;-74
2022/09/05 01:15:03;;;;;;;15.07;3.47;;;;;;;;;;4753338;30;20044;-74
2022/09/05 01:17:32;;;;;;;14.15;3.50;;;;;;;;;;4753213;30;20058;-74
2022/09/05 01:20:07;;;;;;;16.75;3.40;;;;;;;;;;4767128;30;20052;-74
2022/09/05 01:22:44;;;;;;;11.50;3.45;;;;;;;;;;4753256;30;20050;-74
2022/09/05 01:25:25;;;;;;;13.88;3.58;;;;;;;;;;4753019;30;20487;-74
2022/09/05 01:27:52;;;;;;;14.82;3.55;;;;;;;;;;4752694;30;20521;-73
2022/09/05 01:30:40;;;;;;;12.80;3.33;;;;;;;;;;4766493;30;20032;-74
2022/09/05 01:33:25;;;;;;;14.38;3.60;;;;;;;;;;4752979;30;20036;-74
2022/09/05 01:36:11;;;;;;;13.50;3.85;;;;;;;;;;4753073;30;20039;-74
2022/09/05 01:38:56;;;;;;;15.20;3.10;;;;;;;;;;4753157;30;20028;-74
2022/09/05 01:41:46;;;;;;;11.20;3.25;;;;;;;;;;4752363;30;20032;-74
2022/09/05 01:44:15;;;;;;;13.27;3.60;;;;;;;;;;4752527;30;20051;-74
2022/09/05 01:47:00;;;;;;;13.40;3.55;;;;;;;;;;4752756;30;20028;-74
2022/09/05 01:49:36;;;;;;;13.15;3.65;;;;;;;;;;4752805;30;20068;-74
2022/09/05 01:52:18;;;;;;;13.93;3.40;;;;;;;;;;4752702;30;20498;-74
2022/09/05 01:54:50;;;;;;;12.65;3.83;;;;;;;;;;4752553;30;20044;-74
2022/09/05 01:57:29;;;;;;;18.23;3.65;;;;;;;;;;4752229;30;20400;-74
2022/09/05 02:00:06;;;;;;;15.60;3.40;;;;;;;;;;4752524;30;20035;-74
2022/09/05 02:02:51;;;;;;;14.27;3.63;;;;;;;;;;4766091;30;20036;-74
2022/09/05 02:05:30;;;;;;;15.95;3.08;;;;;;;;;;4752667;30;20032;-74
2022/09/05 02:08:08;;;;;;;14.45;3.55;;;;;;;;;;4752358;30;20399;-75
2022/09/05 02:10:52;;;;;;;12.45;3.42;;;;;;;;;;4751917;30;20028;-74
2022/09/05 02:13:25;;;;;;;22.02;3.70;;;;;;;;;;4751476;30;20060;-74
2022/09/05 02:15:57;;;;;;;13.63;3.75;;;;;;;;;;4752320;30;20494;-74
2022/09/05 02:18:25;;;;;;;11.40;3.28;;;;;;;;;;4765740;30;20434;-74
2022/09/05 02:20:56;;;;;;;16.45;3.60;;;;;;;;;;4752300;30;20042;-74
2022/09/05 02:23:22;;;;;;;;;;;;;;;;;;4752702;30;20040;-74
2022/09/05 02:25:53;;;;;;;14.00;4.32;;;;;;;;;;4751791;30;19914;-74
2022/09/05 02:28:31;;;;;;;14.48;3.63;;;;;;;;;;4752307;30;20040;-74
2022/09/05 02:31:04;;;;;;;14.52;4.07;;;;;;;;;;4751998;30;20461;-74
2022/09/05 02:33:49;;;;;;;13.38;3.63;;;;;;;;;;4750935;30;20028;-74
2022/09/05 02:36:34;;;;;;;14.13;3.60;;;;;;;;;;4752103;30;20038;-74
2022/09/05 02:39:06;;;;;;;13.98;3.78;;;;;;;;;;4765302;30;20054;-74
2022/09/05 02:41:41;;;;;;;15.60;4.07;;;;;;;;;;4751748;30;20029;-74
2022/09/05 02:44:27;;;;;;;15.75;3.85;;;;;;;;;;4751977;30;20028;-73
2022/09/05 02:46:58;;;;;;;11.38;3.25;;;;;;;;;;4751699;30;20048;-74
2022/09/05 02:49:42;;;;;;;10.98;3.55;;;;;;;;;;4751823;30;20031;-74
2022/09/05 02:52:10;;;;;;;13.45;3.75;;;;;;;;;;4751759;30;20052;-74
2022/09/05 02:54:39;;;;;;;19.10;4.35;;;;;;;;;;4751492;30;20032;-74
2022/09/05 02:57:24;;;;;;;18.58;4.55;;;;;;;;;;4751590;30;20043;-73
2022/09/05 03:00:02;;;;;;;10.07;3.05;;;;;;;;;;4751603;30;20077;-74
2022/09/05 03:02:34;;;;;;;12.98;3.33;;;;;;;;;;4751719;30;20394;-74
2022/09/05 03:05:07;;;;;;;11.13;3.55;;;;;;;;;;4751657;30;20024;-74
2022/09/05 03:07:42;;;;;;;11.90;3.60;;;;;;;;;;4751783;30;20032;-74
2022/09/05 03:10:27;;;;;;;12.25;3.25;;;;;;;;;;4751308;30;20036;-74
2022/09/05 03:13:03;;;;;;;12.48;3.65;;;;;;;;;;4751443;30;20402;-75
2022/09/05 03:15:29;;;;;;;16.63;3.40;;;;;;;;;;4751746;30;20040;-74
2022/09/05 03:18:09;;;;;;;12.60;3.22;;;;;;;;;;4751342;30;20080;-74
2022/09/05 03:21:00;;;;;;;17.05;3.95;;;;;;;;;;4750191;30;20033;-74
2022/09/05 03:23:38;;;;;;;16.17;3.53;;;;;;;;;;4749074;30;20044;-74
2022/09/05 03:26:15;;;;;;;13.18;3.15;;;;;;;;;;4754994;30;20040;-74
2022/09/05 03:29:05;;;;;;;11.20;3.63;;;;;;;;;;4755315;30;20058;-74
2022/09/05 03:31:50;;;;;;;12.07;3.30;;;;;;;;;;4754907;30;20072;-74
2022/09/05 03:34:52;;;;;;;16.80;4.50;;;;;;;;;;4755215;30;20047;-74
2022/09/05 03:37:33;;;;;;;13.48;3.53;;;;;;;;;;4719729;30;20030;-74
2022/09/05 03:40:18;;;;;;;11.20;3.47;;;;;;;;;;4719856;30;20651;-74
2022/09/05 03:42:47;;;;;;;9.98;3.50;;;;;;;;;;4734701;30;20043;-74
2022/09/05 03:45:16;;;;;;;11.80;3.45;;;;;;;;;;4737530;30;20052;-74
2022/09/05 03:47:58;;;;;;;14.30;3.60;;;;;;;;;;4737228;30;20110;-74
2022/09/05 03:50:43;;;;;;;12.80;3.95;;;;;;;;;;4737218;30;20050;-74
2022/09/05 03:53:28;;;;;;;12.65;4.13;;;;;;;;;;4737017;30;20049;-74
2022/09/05 03:55:54;;;;;;;13.10;3.78;;;;;;;;;;4719802;30;20495;-75
2022/09/05 03:58:23;;;;;;;11.82;3.67;;;;;;;;;;4719854;30;20454;-73
2022/09/05 04:01:08;;;;;;;15.88;3.75;;;;;;;;;;4719833;30;20041;-74
2022/09/05 04:03:43;;;;;;;15.75;4.15;;;;;;;;;;4719736;30;20070;-74
2022/09/05 04:06:09;;;;;;;13.88;4.20;;;;;;;;;;4719608;30;20036;-74
2022/09/05 04:08:44;;;;;;;13.88;3.33;;;;;;;;;;4719657;30;20037;-74
2022/09/05 04:11:13;;;;;;;12.38;4.10;;;;;;;;;;4728652;30;20415;-74
2022/09/05 04:13:48;;;;;;;17.10;3.92;;;;;;;;;;4739444;30;20029;-74
2022/09/05 04:16:17;;;;;;;13.57;3.63;;;;;;;;;;4738068;30;20511;-74
2022/09/05 04:18:55;;;;;;;10.32;4.05;;;;;;;;;;4739034;30;20052;-74
2022/09/05 04:21:27;;;;;;;14.68;3.90;;;;;;;;;;4738941;30;20051;-74
2022/09/05 04:24:02;;;;;;;14.65;3.88;;;;;;;;;;4739283;30;20039;-74
2022/09/05 04:26:37;;;;;;;14.18;3.88;;;;;;;;;;4738996;30;20033;-74
2022/09/05 04:29:04;;;;;;;13.68;3.55;;;;;;;;;;4739096;30;20036;-74
2022/09/05 04:31:43;;;;;;;19.85;3.90;;;;;;;;;;4739157;30;20059;-74
2022/09/05 04:34:09;;;;;;;10.73;3.65;;;;;;;;;;4739337;30;20039;-74
2022/09/05 04:36:37;;;;;;;13.63;3.50;;;;;;;;;;4735918;30;20033;-74
2022/09/05 04:39:18;;;;;;;14.52;3.80;;;;;;;;;;4736299;30;20041;-74
2022/09/05 04:41:50;;;;;;;12.70;4.10;;;;;;;;;;4743645;30;20035;-73
2022/09/05 04:44:27;;;;;;;17.38;4.55;;;;;;;;;;4753865;30;20033;-73
2022/09/05 04:46:55;;;;;;;16.08;3.65;;;;;;;;;;4753709;30;20520;-74
2022/09/05 04:49:29;;;;;;;13.88;3.80;;;;;;;;;;4753555;30;20028;-74
2022/09/05 04:52:02;;;;;;;12.35;3.65;;;;;;;;;;4782240;30;20040;-74
2022/09/05 04:54:43;;;;;;;13.35;3.40;;;;;;;;;;4767327;30;20028;-74
2022/09/05 04:57:14;;;;;;;15.10;4.18;;;;;;;;;;4753710;30;20077;-74
2022/09/05 04:59:41;;;;;;;7.20;3.40;;;;;;;;;;4753579;30;20024;-74
2022/09/05 05:02:18;;;;;;;10.10;3.30;;;;;;;;;;4767404;30;20055;-74
2022/09/05 05:04:45;;;;;;;13.82;3.47;;;;;;;;;;4753196;30;20020;-74
2022/09/05 05:07:46;;;;;;;11.70;3.65;;;;;;;;;;4753379;30;20048;-74
2022/09/05 05:10:21;;;;;;;12.75;3.70;;;;;;;;;;4751617;30;20039;-74
2022/09/05 05:12:53;;;;;;;11.40;3.40;;;;;;;;;;4751523;30;20040;-74
2022/09/05 05:15:21;;;;;;;13.60;3.70;;;;;;;;;;4751190;30;20040;-74
2022/09/05 05:17:52;;;;;;;19.13;4.03;;;;;;;;;;4751068;30;20058;-74
2022/09/05 05:20:19;;;;;;;18.65;3.58;;;;;;;;;;4736328;30;20515;-74
2022/09/05 05:22:48;;;;;;;14.07;3.28;;;;;;;;;;4751523;30;20061;-74
2022/09/05 05:25:15;;;;;;;10.43;3.25;;;;;;;;;;4751342;30;20514;-74
2022/09/05 05:27:46;;;;;;;12.35;3.15;;;;;;;;;;4751018;30;20410;-74
2022/09/05 05:30:22;;;;;;;13.23;3.40;;;;;;;;;;4736227;30;20032;-74
2022/09/05 05:32:51;;;;;;;18.02;4.15;;;;;;;;;;4751144;30;20085;-74
2022/09/05 05:35:26;;;;;;;12.57;3.50;;;;;;;;;;4750852;30;20032;-73
2022/09/05 05:38:07;;;;;;;15.60;3.40;;;;;;;;;;4750849;30;20090;-73
2022/09/05 05:40:33;;;;;;;11.43;3.92;;;;;;;;;;4750707;30;20544;-74
2022/09/05 05:43:17;;;;;;;13.00;3.70;;;;;;;;;;4750938;30;20036;-74
2022/09/05 05:45:43;;;;;;;13.70;3.88;;;;;;;;;;4752708;30;20032;-74
2022/09/05 05:48:12;;;;;;;14.25;3.35;;;;;;;;;;4752349;30;20448;-74
2022/09/05 05:50:45;;;;;;;11.75;3.42;;;;;;;;;;4752718;30;20024;-74
2022/09/05 05:53:21;;;;;;;12.63;3.58;;;;;;;;;;4752789;30;20088;-74
2022/09/05 05:55:47;;;;;;;19.45;3.65;;;;;;;;;;4752583;30;20039;-74
2022/09/05 05:58:19;;;;;;;15.10;4.03;;;;;;;;;;4766300;30;20028;-74
2022/09/05 06:00:52;;;;;;;11.35;3.33;;;;;;;;;;4752472;30;20372;-74
2022/09/05 06:03:33;;;;;;;11.32;3.30;;;;;;;;;;4765749;30;20100;-74
2022/09/05 06:06:02;;;;;;;13.93;3.67;;;;;;;;;;4752081;30;20037;-73
2022/09/05 06:08:44;;;;;;;11.40;3.65;;;;;;;;;;4752415;30;20036;-74
2022/09/05 06:11:29;;;;;;;11.20;3.10;;;;;;;;;;4752558;30;20027;-74
2022/09/05 06:13:57;;;;;;;11.77;2.97;;;;;;;;;;4741325;30;20040;-66
2022/09/05 06:16:26;;;;;;;13.07;3.28;;;;;;;;;;4742497;30;20520;-65
2022/09/05 06:19:11;;;;;;;14.18;3.10;;;;;;;;;;4752005;30;20555;-67
2022/09/05 06:21:40;;;;;;;11.25;2.90;;;;;;;;;;4750514;30;20032;-65
2022/09/05 06:24:25;;;;;;;13.85;3.20;;;;;;;;;;4743904;30;20030;-66
2022/09/05 06:27:01;;;;;;;18.30;3.22;;;;;;;;;;4745735;30;20052;-68
2022/09/05 06:29:30;;;;;;;9.40;3.42;;;;;;;;;;4751224;30;20028;-67
2022/09/05 06:32:05;;;;;;;15.05;3.08;;;;;;;;;;4751435;30;20409;-68
2022/09/05 06:34:32;;;;;;;15.88;3.05;;;;;;;;;;4741149;30;20036;-67
2022/09/05 06:37:02;;;;;;;10.95;2.75;;;;;;;;;;4751660;30;20516;-68
2022/09/05 06:39:40;;;;;;;15.55;2.92;;;;;;;;;;4765312;30;20402;-68
2022/09/05 06:42:15;;;;;;;12.88;2.88;;;;;;;;;;4751967;30;20030;-68
2022/09/05 06:44:50;;;;;;;13.52;3.35;;;;;;;;;;4751876;30;20046;-66
2022/09/05 06:47:18;;;;;;;12.05;3.33;;;;;;;;;;4750982;30;20036;-65
2022/09/05 06:49:47;;;;;;;11.60;2.83;;;;;;;;;;4736961;30;20032;-65
2022/09/05 06:52:26;;;;;;;12.68;3.05;;;;;;;;;;4733714;30;20055;-65
2022/09/05 06:54:52;;;;;;;12.10;3.38;;;;;;;;;;4743379;30;20520;-65
2022/09/05 06:57:37;;;;;;;12.40;3.08;;;;;;;;;;4740093;30;20032;-65
2022/09/05 07:00:11;;;;;;;14.60;3.40;;;;;;;;;;4734333;30;20044;-66
2022/09/05 07:02:56;;;;;;;12.07;3.15;;;;;;;;;;4750440;30;20490;-66
2022/09/05 07:05:22;;;;;;;12.65;3.17;;;;;;;;;;4748798;30;20038;-65
2022/09/05 07:07:54;;;;;;;12.95;2.97;;;;;;;;;;4736633;30;20044;-66
2022/09/05 07:10:28;;;;;;;11.57;3.15;;;;;;;;;;4733441;30;20036;-65
2022/09/05 07:13:13;;;;;;;11.90;2.50;;;;;;;;;;4738747;30;20376;-65
2022/09/05 07:15:47;;;;;;;10.00;3.38;;;;;;;;;;4748853;30;20062;-65
2022/09/05 07:18:22;;;;;;;12.25;3.25;;;;;;;;;;4749796;30;20048;-66
2022/09/05 07:20:51;;;;;;;16.30;3.08;;;;;;;;;;4739104;30;20032;-66
2022/09/05 07:23:39;;;;;;;9.43;2.45;;;;;;;;;;4762597;30;20040;-65
2022/09/05 07:26:06;;;;;;;18.13;3.38;;;;;;;;;;4750267;30;20399;-65
2022/09/05 07:28:33;;;;;;;13.95;3.05;;;;;;;;;;4750488;30;20071;-65
2022/09/05 07:31:01;;;;;;;9.68;2.40;;;;;;;;;;4750128;30;20032;-65
2022/09/05 07:33:30;;;;;;;7.75;2.55;;;;;;;;;;4750833;30;20028;-64
2022/09/05 07:36:04;;;;;;;14.95;3.20;;;;;;;;;;4751104;30;20036;-66
2022/09/05 07:38:31;;;;;;;13.90;3.47;;;;;;;;;;4750876;30;20040;-65
2022/09/05 07:41:03;;;;;;;11.40;3.22;;;;;;;;;;4752676;30;20379;-65
2022/09/05 07:43:34;;;;;;;12.75;3.30;;;;;;;;;;4740875;30;20128;-65
2022/09/05 07:46:00;;;;;;;16.83;3.17;;;;;;;;;;4734297;30;20036;-65
2022/09/05 07:48:28;;;;;;;10.65;2.97;;;;;;;;;;4734212;30;20053;-65
2022/09/05 07:51:01;;;;;;;9.75;2.78;;;;;;;;;;4733211;30;20061;-66
2022/09/05 07:53:28;;;;;;;11.68;2.67;;;;;;;;;;4733180;30;20041;-65
2022/09/05 07:55:58;;;;;;;14.50;2.58;;;;;;;;;;4749297;30;20031;-65
2022/09/05 07:58:40;;;;;;;14.13;2.97;;;;;;;;;;4740454;30;20094;-65
2022/09/05 08:01:08;;;;;;;12.05;2.83;;;;;;;;;;4750650;30;20020;-65
2022/09/05 08:03:35;;;;;;;9.45;2.90;;;;;;;;;;4750460;30;20394;-65
2022/09/05 08:06:04;;;;;;;14.68;2.92;;;;;;;;;;4750993;30;20043;-66
2022/09/05 08:08:39;;;;;;;11.75;2.60;;;;;;;;;;4750633;30;20070;-66
2022/09/05 08:11:10;;;;;;;13.52;2.70;;;;;;;;;;4751086;30;20478;-66
2022/09/05 08:13:42;;;;;;;11.18;2.80;;;;;;;;;;4755605;30;20054;-67
2022/09/05 08:16:13;;;;;;;7.68;2.55;;;;;;;;;;4754410;30;20032;-65
2022/09/05 08:18:44;;;;;;;13.80;2.65;;;;;;;;;;4747930;30;20060;-66
2022/09/05 08:21:20;;;;;;;14.60;3.03;;;;;;;;;;4753999;30;20093;-67
2022/09/05 08:23:54;;;;;;;13.70;3.00;;;;;;;;;;4753620;30;20503;-66
2022/09/05 08:26:29;;;;;;;15.85;2.83;;;;;;;;;;4753921;30;20028;-66
2022/09/05 08:29:04;;;;;;;9.65;2.55;;;;;;;;;;4753374;30;20037;-67
2022/09/05 08:31:33;;;;;;;14.85;2.88;;;;;;;;;;4751065;30;20050;-67
2022/09/05 08:34:02;;;;;;;10.83;2.73;;;;;;;;;;4746732;30;20040;-66
2022/09/05 08:36:35;;;;;;;7.82;2.40;;;;;;;;;;4753731;30;20065;-65
2022/09/05 08:39:02;;;;;;;9.02;2.55;;;;;;;;;;4747723;30;20041;-66
2022/09/05 08:41:33;;;;;;;12.18;2.60;;;;;;;;;;4744983;30;20025;-66
2022/09/05 08:44:12;;;;;;;12.60;2.78;;;;;;;;;;4753358;30;20379;-65
2022/09/05 08:46:38;;;;;;;13.80;2.97;;;;;;;;;;4753357;30;20040;-67
2022/09/05 08:49:04;;;;;;;11.98;2.67;;;;;;;;;;4766665;30;20418;-67
2022/09/05 08:51:50;;;;;;;18.83;2.58;;;;;;;;;;4753699;30;20031;-66
2022/09/05 08:54:26;;;;;;;13.68;2.67;;;;;;;;;;4753158;30;20040;-67
2022/09/05 08:57:10;;;;;;;12.88;3.00;;;;;;;;;;4753002;30;20085;-66
2022/09/05 08:59:42;;;;;;;20.00;3.20;;;;;;;;;;4766902;30;20024;-66
2022/09/05 09:02:21;;;;;;;17.52;2.90;;;;;;;;;;4753243;30;20038;-67
2022/09/05 09:04:52;;;;;;;16.20;3.10;;;;;;;;;;4747866;30;20382;-67
2022/09/05 09:07:37;;;;;;;16.08;3.50;;;;;;;;;;4753191;30;20499;-67
2022/09/05 09:10:03;;;;;;;10.70;2.72;;;;;;;;;;4753194;30;20040;-66
2022/09/05 09:12:47;;;;;;;14.10;3.20;;;;;;;;;;4752865;30;20036;-66
2022/09/05 09:15:24;;;;;;;13.32;2.88;;;;;;;;;;4753576;30;20046;-65
2022/09/05 09:17:51;;;;;;;15.13;3.50;;;;;;;;;;4750319;30;20036;-65
2022/09/05 09:20:23;;;;;;;25.60;10.10;;;;;;;;;;4748050;30;20188;-66
2022/09/05 09:23:11;;;;;;;23.63;3.83;;;;;;;;;;4765518;30;20031;-66
2022/09/05 09:25:41;;;;;;;14.30;3.60;;;;;;;;;;4759055;30;20410;-67
2022/09/05 09:28:26;;;;;;;13.57;3.85;;;;;;;;;;4751541;30;20109;-66
2022/09/05 09:31:11;;;;;;;14.50;3.03;;;;;;;;;;4752800;30;20032;-67
2022/09/05 09:33:45;;;;;;;17.08;3.38;;;;;;;;;;4754396;30;20027;-65
2022/09/05 09:36:32;;;;;;;21.73;5.75;;;;;;;;;;4766956;30;20028;-65
2022/09/05 09:38:58;;;;;;;15.48;3.15;;;;;;;;;;4736804;30;20055;-65
2022/09/05 09:41:31;;;;;;;18.17;2.92;;;;;;;;;;4739338;30;20040;-65
2022/09/05 09:43:57;;;;;;;18.05;3.45;;;;;;;;;;4752461;30;20032;-66
2022/09/05 09:46:27;;;;;;;17.25;3.97;;;;;;;;;;4751623;30;20028;-67
2022/09/05 09:49:02;;;;;;;20.10;3.28;;;;;;;;;;4752047;30;20038;-67
2022/09/05 09:51:48;;;;;;;13.07;2.72;;;;;;;;;;4752238;30;20032;-66
2022/09/05 09:54:29;;;;;;;15.25;3.03;;;;;;;;;;4751781;30;20433;-65
2022/09/05 09:57:10;;;;;;;14.88;3.33;;;;;;;;;;4734630;30;20055;-66
2022/09/05 09:59:46;;;;;;;14.18;2.65;;;;;;;;;;4734637;30;20029;-65
2022/09/05 10:02:20;;;;;;;14.43;2.90;;;;;;;;;;4734572;30;20043;-65
2022/09/05 10:05:06;;;;;;;14.02;2.85;;;;;;;;;;4741874;30;20028;-66
2022/09/05 10:07:32;;;;;;;11.07;3.15;;;;;;;;;;4752168;30;20413;-66
2022/09/05 10:10:06;;;;;;;15.18;3.15;;;;;;;;;;4751623;30;20028;-66
2022/09/05 10:12:32;;;;;;;14.02;3.53;;;;;;;;;;4752139;30;20046;-67
2022/09/05 10:15:12;;;;;;;14.57;2.80;;;;;;;;;;4751962;30;20548;-66
2022/09/05 10:17:38;;;;;;;16.52;3.42;;;;;;;;;;4752049;30;20105;-66
2022/09/05 10:20:16;;;;;;;14.13;2.88;;;;;;;;;;4751992;30;20409;-66
2022/09/05 10:22:43;;;;;;;16.13;3.65;;;;;;;;;;4758939;30;20402;-66
2022/09/05 10:25:27;;;;;;;25.83;13.07;;;;;;;;;;4760244;30;20034;-67
2022/09/05 10:28:12;;;;;;;21.60;2.92;;;;;;;;;;4758900;30;20095;-67
2022/09/05 10:30:41;;;;;;;14.27;3.67;;;;;;;;;;4759017;30;20028;-66
2022/09/05 10:33:17;;;;;;;12.57;3.30;;;;;;;;;;4761262;30;20034;-66
2022/09/05 10:35:47;;;;;;;15.07;2.78;;;;;;;;;;4763169;30;20028;-66
2022/09/05 10:38:16;;;;;;;15.55;2.95;;;;;;;;;;4772993;30;20039;-66
2022/09/05 10:40:45;;;;;;;17.90;2.95;;;;;;;;;;4760290;30;20547;-66
2022/09/05 10:43:20;;;;;;;18.80;2.60;;;;;;;;;;4750418;30;20383;-66
2022/09/05 10:45:48;;;;;;;17.05;2.85;;;;;;;;;;4750680;30;20040;-66
2022/09/05 10:48:21;;;;;;;12.65;2.65;;;;;;;;;;4750237;30;20028;-66
2022/09/05 10:50:51;;;;;;;15.02;3.10;;;;;;;;;;4750610;30;20040;-65
2022/09/05 10:53:18;;;;;;;;;;;;;;;;;;4750356;30;20032;-65
2022/09/05 10:56:03;;;;;;;13.00;2.80;;;;;;;;;;4763866;30;19910;-65
2022/09/05 10:58:33;;;;;;;15.02;2.70;;;;;;;;;;4750236;30;20036;-66
2022/09/05 11:00:59;;;;;;;18.15;3.17;;;;;;;;;;4749988;30;20026;-66
2022/09/05 11:03:29;;;;;;;19.20;3.53;;;;;;;;;;4750260;30;20038;-65
2022/09/05 11:05:57;;;;;;;12.48;3.00;;;;;;;;;;4765085;30;20031;-65
2022/09/05 11:08:30;;;;;;;16.30;3.00;;;;;;;;;;4763452;30;20048;-66
2022/09/05 11:11:12;;;;;;;12.40;3.13;;;;;;;;;;4760937;30;20025;-66
2022/09/05 11:13:48;;;;;;;16.20;2.97;;;;;;;;;;4755890;30;20068;-65
2022/09/05 11:16:33;;;;;;;14.32;2.67;;;;;;;;;;4759774;30;20032;-66
2022/09/05 11:18:59;;;;;;;15.35;2.83;;;;;;;;;;4758330;30;20507;-66
2022/09/05 11:21:45;;;;;;;15.63;2.50;;;;;;;;;;4752495;30;20040;-66
2022/09/05 11:24:11;;;;;;;14.27;2.95;;;;;;;;;;4748280;30;20032;-66
2022/09/05 11:26:41;;;;;;;13.82;2.90;;;;;;;;;;4752774;30;20081;-66
2022/09/05 11:29:10;;;;;;;14.18;2.60;;;;;;;;;;4750945;30;20076;-66
2022/09/05 11:31:56;;;;;;;13.68;2.60;;;;;;;;;;4751015;30;20384;-66
2022/09/05 11:34:34;;;;;;;10.77;2.53;;;;;;;;;;4750491;30;20063;-67
2022/09/05 11:37:01;;;;;;;13.18;2.92;;;;;;;;;;4746608;30;20032;-66
2022/09/05 11:39:40;;;;;;;10.88;2.60;;;;;;;;;;4732690;30;20038;-66
2022/09/05 11:42:13;;;;;;;12.57;2.55;;;;;;;;;;4742361;30;20047;-66
2022/09/05 11:44:50;;;;;;;14.77;2.70;;;;;;;;;;4746397;30;20035;-67
2022/09/05 11:47:34;;;;;;;15.20;2.80;;;;;;;;;;4744215;30;20047;-66
2022/09/05 11:50:01;;;;;;;16.08;2.67;;;;;;;;;;4753826;30;20089;-66
2022/09/05 11:52:33;;;;;;;11.70;2.55;;;;;;;;;;4753959;30;20495;-67
2022/09/05 11:55:00;;;;;;;14.98;3.03;;;;;;;;;;4750357;30;20039;-67
2022/09/05 11:57:32;;;;;;;14.75;2.80;;;;;;;;;;4754775;30;20074;-67
2022/09/05 11:59:58;;;;;;;11.30;2.70;;;;;;;;;;4748713;30;20037;-67
2022/09/05 12:02:40;;;;;;;13.25;2.70;;;;;;;;;;4737408;30;20039;-66
2022/09/05 12:05:25;;;;;;;14.27;2.53;;;;;;;;;;4752913;30;20405;-66
2022/09/05 12:07:56;;;;;;;12.40;2.55;;;;;;;;;;4747890;30;20040;-67
2022/09/05 12:10:31;;;;;;;10.70;2.38;;;;;;;;;;4754146;30;20039;-66
2022/09/05 12:13:07;;;;;;;14.13;2.50;;;;;;;;;;4751271;30;20028;-66
2022/09/05 12:15:33;;;;;;;17.15;2.75;;;;;;;;;;4766273;30;20028;-66
2022/09/05 12:18:04;;;;;;;19.55;3.17;;;;;;;;;;4747018;30;20059;-67
2022/09/05 12:21:08;;;;;;;12.43;2.63;;;;;;;;;;4752373;30;20410;-67
2022/09/05 12:23:40;;;;;;;9.43;2.50;;;;;;;;;;4768315;30;20042;-66
2022/09/05 12:26:25;;;;;;;11.40;2.90;;;;;;;;;;4763763;30;20056;-67
2022/09/05 12:28:57;;;;;;;15.98;3.00;;;;;;;;;;4753749;30;20044;-67
2022/09/05 12:31:26;;;;;;;10.05;3.08;;;;;;;;;;4750235;30;20047;-67
2022/09/05 12:33:53;;;;;;;14.60;3.40;;;;;;;;;;4753136;30;20407;-67
2022/09/05 12:36:19;;;;;;;13.00;2.85;;;;;;;;;;4759991;30;20035;-67
2022/09/05 12:38:50;;;;;;;15.05;3.40;;;;;;;;;;4750786;30;20051;-67
2022/09/05 12:41:21;;;;;;;13.10;2.80;;;;;;;;;;4758974;30;20052;-67
2022/09/05 12:44:10;;;;;;;12.43;2.83;;;;;;;;;;4749705;30;20406;-67
2022/09/05 12:46:45;;;;;;;17.10;3.40;;;;;;;;;;4750340;30;20073;-67
2022/09/05 12:49:35;;;;;;;14.80;3.10;;;;;;;;;;4732993;30;20049;-67
2022/09/05 12:52:06;;;;;;;11.77;3.28;;;;;;;;;;4730533;30;20559;-67
2022/09/05 12:54:41;;;;;;;16.63;2.90;;;;;;;;;;4741808;30;20422;-67
2022/09/05 12:57:17;;;;;;;20.80;3.30;;;;;;;;;;4751717;30;20042;-67
2022/09/05 12:59:46;;;;;;;15.48;3.00;;;;;;;;;;4752850;30;20077;-67
2022/09/05 13:02:16;;;;;;;15.37;3.23;;;;;;;;;;4753097;30;20048;-67
2022/09/05 13:04:45;;;;;;;13.48;2.80;;;;;;;;;;4752959;30;20277;-67
2022/09/05 13:07:21;;;;;;;17.60;3.35;;;;;;;;;;4752261;30;20081;-67
2022/09/05 13:09:52;;;;;;;13.32;3.22;;;;;;;;;;4752949;30;20050;-67
2022/09/05 13:12:37;;;;;;;11.57;2.47;;;;;;;;;;4750802;30;20387;-67
2022/09/05 13:15:06;;;;;;;7.25;2.10;;;;;;;;;;4745678;30;20031;-67
2022/09/05 13:17:37;;;;;;;;;;;;;;;;;;4745362;30;20051;-67
2022/09/05 13:20:34;;;;;;;11.52;2.92;;;;;;;;;;4743038;30;19918;-65
2022/09/05 13:23:03;;;;;;;9.18;2.40;;;;;;;;;;4747835;30;20052;-66
2022/09/05 13:25:31;;;;;;;13.02;2.80;;;;;;;;;;4752321;30;20039;-66
2022/09/05 13:28:00;;;;;;;15.13;2.83;;;;;;;;;;4768637;30;20469;-66
2022/09/05 13:30:27;;;;;;;;;;;;;;;;;;4753108;30;20058;-65
2022/09/05 13:32:55;;;;;;;11.10;2.72;;;;;;;;;;4751100;30;19914;-66
2022/09/05 13:35:27;;;;;;;19.13;2.80;;;;;;;;;;4752239;30;20035;-65
2022/09/05 13:37:59;;;;;;;10.90;2.70;;;;;;;;;;4738501;30;20445;-65
2022/09/05 13:40:27;;;;;;;17.55;2.88;;;;;;;;;;4770036;30;20020;-66
2022/09/05 13:43:10;;;;;;;15.68;3.35;;;;;;;;;;4753376;30;20513;-66
2022/09/05 13:45:55;;;;;;;15.80;3.47;;;;;;;;;;4750844;30;20041;-66
2022/09/05 13:48:48;;;;;;;14.32;2.90;;;;;;;;;;4751949;30;20056;-66
2022/09/05 13:51:27;;;;;;;16.02;3.20;;;;;;;;;;4753318;30;20499;-67
2022/09/05 13:54:12;;;;;;;14.85;3.20;;;;;;;;;;4751695;30;20036;-66
2022/09/05 13:56:44;;;;;;;23.10;3.10;;;;;;;;;;4751330;30;20020;-66
2022/09/05 13:59:13;;;;;;;13.32;2.92;;;;;;;;;;4750901;30;20089;-65
2022/09/05 14:01:43;;;;;;;14.70;3.42;;;;;;;;;;4751745;30;20965;-65
2022/09/05 14:04:22;;;;;;;17.05;3.47;;;;;;;;;;4751482;30;20036;-66
2022/09/05 14:07:05;;;;;;;13.48;3.05;;;;;;;;;;4751905;30;20040;-66
2022/09/05 14:09:40;;;;;;;18.95;3.42;;;;;;;;;;4751966;30;20024;-66
2022/09/05 14:12:14;;;;;;;19.42;3.60;;;;;;;;;;4749725;30;20087;-66
2022/09/05 14:14:47;;;;;;;17.38;3.08;;;;;;;;;;4751670;30;20035;-65
2022/09/05 14:17:16;;;;;;;15.20;3.20;;;;;;;;;;4750648;30;20062;-65
2022/09/05 14:22:41;;;;;;;16.63;2.90;;;;;;;;;;4745432;30;20483;-66
2022/09/05 14:25:15;;;;;;;16.85;3.50;;;;;;;;;;4751188;30;20490;-66
2022/09/05 14:27:43;;;;;;;21.50;4.35;;;;;;;;;;4750701;30;20036;-66
2022/09/05 14:30:28;;;;;;;15.90;3.15;;;;;;;;;;4750285;30;20449;-66
2022/09/05 14:33:03;;;;;;;13.90;3.38;;;;;;;;;;4745154;30;20039;-66
2022/09/05 14:35:32;;;;;;;17.88;3.30;;;;;;;;;;4746227;30;20033;-65
2022/09/05 14:38:10;;;;;;;19.25;2.97;;;;;;;;;;4742477;30;20043;-65
2022/09/05 14:40:48;;;;;;;17.13;3.28;;;;;;;;;;4749991;30;20040;-65
2022/09/05 14:43:31;;;;;;;21.67;3.80;;;;;;;;;;4734200;30;20037;-65
2022/09/05 14:45:57;;;;;;;17.20;2.92;;;;;;;;;;4743666;30;20030;-66
2022/09/05 14:48:23;;;;;;;16.27;3.13;;;;;;;;;;4740655;30;20047;-66
2022/09/05 14:51:10;;;;;;;16.77;3.45;;;;;;;;;;4742290;30;20065;-66
2022/09/05 14:54:06;;;;;;;17.02;3.33;;;;;;;;;;4751091;30;20036;-66
2022/09/05 14:56:37;;;;;;;16.10;3.10;;;;;;;;;;4752401;30;20045;-64
2022/09/05 14:59:16;;;;;;;18.67;3.10;;;;;;;;;;4740805;30;20441;-66
2022/09/05 15:01:54;;;;;;;17.50;3.17;;;;;;;;;;4750317;30;20061;-66
2022/09/05 15:04:25;;;;;;;18.30;3.40;;;;;;;;;;4751174;30;20082;-66
2022/09/05 15:07:18;;;;;;;22.85;3.63;;;;;;;;;;4751184;30;20035;-66
2022/09/05 15:09:45;;;;;;;16.63;3.45;;;;;;;;;;4751586;30;20044;-66
2022/09/05 15:12:17;;;;;;;20.90;3.80;;;;;;;;;;4750898;30;20483;-65
2022/09/05 15:14:59;;;;;;;19.00;3.67;;;;;;;;;;4750888;30;20494;-66
2022/09/05 15:17:26;;;;;;;20.35;3.78;;;;;;;;;;4764656;30;20056;-66
2022/09/05 15:19:53;;;;;;;17.35;3.25;;;;;;;;;;4750304;30;20036;-66